ADDS TAF Board (Experimental) INFO Settings
IDs: Format: Expanded Condensed

KSLC - Salt Lake City Intl, UT, US

Issued at 0520 UTC 24 Jul 2016
Updated at 0647 UTC 24 Jul 2016
Time0554Z 24/07Z 24/08Z 24/09Z 24/10Z 24/11Z 24/12Z 24/13Z 24/14Z 24/15Z 24/16Z 24/17Z 24/18Z 24/19Z
Type OBS PRVL PRVL PRVL PRVL PRVL PRVL PRVL PRVL PRVL PRVL PRVL PRVL PRVL
VIS 10 >6 >6 >6 >6 >6 >6 >6 >6 >6 >6 >6 >6 >6
CIG -- -- -- -- -- -- -- -- -- -- -- -- -- --
Cover CLR SKC SKC SKC SKC SKC SKC SKC SKC SKC SKC SKC SKC SKC
FltCat VFR VFR VFR VFR VFR VFR VFR VFR VFR VFR VFR VFR VFR VFR
WX -- -- -- -- -- -- -- -- -- -- -- -- -- --
WDir 180 350 350 350 350 350 150 150 150 150 330 330 330 330
WSpd 5 5 5 5 5 5 4 4 4 4 10 10 10 10
WGst -- -- -- -- -- -- -- -- -- -- -- -- -- --
R14/32
XWnd -2 1 1 1 1 1 0 0 0 0 -1 -1 -1 -1
HWnd 4 -5 -5 -5 -5 -5 4 4 4 4 -10 -10 -10 -10
R16/34
XWnd -0 -0 -0 -0 -0 -0 2 2 2 2 -4 -4 -4 -4
HWnd 5 -5 -5 -5 -5 -5 4 4 4 4 -9 -9 -9 -9
R17/35
XWnd 0 -1 -1 -1 -1 -1 2 2 2 2 -5 -5 -5 -5
HWnd 5 -5 -5 -5 -5 -5 3 3 3 3 -9 -9 -9 -9
RHB/18
XWnd -0 1 1 1 1 1 -2 -2 -2 -2 5 5 5 5
HWnd -5 5 5 5 5 5 -3 -3 -3 -3 9 9 9 9

Raw TAF
KSLC 240520Z 2406/2512 15005KT P6SM SKC
  FM240700 35005KT P6SM SKC
  FM241200 15004KT P6SM SKC
  FM241600 33010KT P6SM SKC
  FM250400 16004KT P6SM SKC


Raw METAR
KSLC 240554Z 18005KT 10SM CLR 24/M01 A3003 RMK AO2 SLP107 T02391006 10344 20233 51006
KSLC 240454Z 18003KT 10SM CLR 26/M01 A3003 RMK AO2 SLP107 T02561006
KSLC 240354Z 19004KT 10SM FEW030 28/M02 A3002 RMK AO2 SLP104 FU FEW030 FU S-NW T02781022

METAR Board
Radar Display
Forecast Discussion

TAF Board Legend

Potential Impact
Threat None Slight Moderate High
Visibility (sm) ≥5.1 5.1>X≥3 3>X≥1 <1
Ceiling (100 ft) ≥30.1 30.1>X≥10 10>X≥5 <5
Wind Speed (kt) <10 10≤X<20 20≤X<30 ≥30
Wind Gust (kt) <15 15≤X<25 25≤X<35 ≥35
Weather No Wx Reported VCTS,-TS,-FZRA,SN TS,FZRA +TS,+FZRA,+SN